sensor_id;sensor_type;location;lat;lon;timestamp;pressure;altitude;pressure_sealevel;temperature;humidity
55757;BME280;41676;44.610;44.078;2023-04-30T00:03:03;99615.69;;;14.02;83.00
55757;BME280;41676;44.610;44.078;2023-04-30T00:08:04;99508.59;;;13.45;83.11
55757;BME280;41676;44.610;44.078;2023-04-30T00:13:05;99590.88;;;13.95;83.34
55757;BME280;41676;44.610;44.078;2023-04-30T00:18:06;99579.38;;;13.88;83.39
55757;BME280;41676;44.610;44.078;2023-04-30T00:23:07;99547.56;;;13.66;83.47
55757;BME280;41676;44.610;44.078;2023-04-30T00:28:07;99589.88;;;13.76;83.84
55757;BME280;41676;44.610;44.078;2023-04-30T00:33:08;99579.19;;;13.69;83.69
55757;BME280;41676;44.610;44.078;2023-04-30T00:38:09;99488.28;;;13.11;83.91
55757;BME280;41676;44.610;44.078;2023-04-30T00:43:10;99580.84;;;13.57;84.04
55757;BME280;41676;44.610;44.078;2023-04-30T00:48:10;99570.41;;;13.49;84.00
55757;BME280;41676;44.610;44.078;2023-04-30T00:53:11;99524.19;;;13.15;84.23
55757;BME280;41676;44.610;44.078;2023-04-30T00:58:12;99561.34;;;13.30;84.32
55757;BME280;41676;44.610;44.078;2023-04-30T01:03:13;99565.22;;;13.21;84.96
55757;BME280;41676;44.610;44.078;2023-04-30T01:08:14;99593.09;;;13.18;84.94
55757;BME280;41676;44.610;44.078;2023-04-30T01:13:28;99510.38;;;12.65;86.07
55757;BME280;41676;44.610;44.078;2023-04-30T01:18:38;99619.81;;;13.25;85.73
55757;BME280;41676;44.610;44.078;2023-04-30T01:23:54;99607.69;;;13.22;86.16
55757;BME280;41676;44.610;44.078;2023-04-30T01:29:02;99596.81;;;13.17;85.23
55757;BME280;41676;44.610;44.078;2023-04-30T01:34:03;99596.81;;;13.11;85.39
55757;BME280;41676;44.610;44.078;2023-04-30T01:44:33;99597.78;;;12.96;85.52
55757;BME280;41676;44.610;44.078;2023-04-30T01:55:00;99563.22;;;12.55;85.53
55757;BME280;41676;44.610;44.078;2023-04-30T02:00:05;99586.41;;;12.61;85.29
55757;BME280;41676;44.610;44.078;2023-04-30T02:05:10;99673.28;;;13.03;85.26
55757;BME280;41676;44.610;44.078;2023-04-30T02:10:11;99652.09;;;12.82;85.29
55757;BME280;41676;44.610;44.078;2023-04-30T02:15:12;99572.19;;;12.41;85.68
55757;BME280;41676;44.610;44.078;2023-04-30T02:20:13;99663.63;;;12.89;85.89
55757;BME280;41676;44.610;44.078;2023-04-30T02:25:13;99649.00;;;12.78;85.47
55757;BME280;41676;44.610;44.078;2023-04-30T02:30:14;99587.78;;;12.44;85.32
55757;BME280;41676;44.610;44.078;2023-04-30T02:35:15;99676.97;;;12.96;85.60
55757;BME280;41676;44.610;44.078;2023-04-30T02:40:16;99666.22;;;12.83;84.79
55757;BME280;41676;44.610;44.078;2023-04-30T02:45:16;99664.19;;;12.85;85.29
55757;BME280;41676;44.610;44.078;2023-04-30T02:50:17;99631.78;;;12.81;85.31
55757;BME280;41676;44.610;44.078;2023-04-30T02:55:18;99611.84;;;12.70;85.30
55757;BME280;41676;44.610;44.078;2023-04-30T03:00:19;99663.16;;;12.86;85.34
55757;BME280;41676;44.610;44.078;2023-04-30T03:05:20;99647.16;;;12.86;85.37
55757;BME280;41676;44.610;44.078;2023-04-30T03:10:21;99629.53;;;12.78;85.51
55757;BME280;41676;44.610;44.078;2023-04-30T03:15:21;99642.06;;;12.91;85.27
55757;BME280;41676;44.610;44.078;2023-04-30T03:20:22;99653.97;;;12.95;84.98
55757;BME280;41676;44.610;44.078;2023-04-30T03:25:23;99634.03;;;12.77;85.12
55757;BME280;41676;44.610;44.078;2023-04-30T03:30:24;99577.97;;;12.51;85.48
55757;BME280;41676;44.610;44.078;2023-04-30T03:35:25;99592.78;;;12.60;85.00
55757;BME280;41676;44.610;44.078;2023-04-30T03:40:25;99565.00;;;12.34;85.36
55757;BME280;41676;44.610;44.078;2023-04-30T03:45:26;99670.75;;;12.82;85.03
55757;BME280;41676;44.610;44.078;2023-04-30T03:50:27;99725.09;;;12.88;85.56
55757;BME280;41676;44.610;44.078;2023-04-30T03:55:28;99733.28;;;12.86;85.49
55757;BME280;41676;44.610;44.078;2023-04-30T04:00:29;99753.13;;;12.77;85.54
55757;BME280;41676;44.610;44.078;2023-04-30T04:05:30;99782.97;;;12.94;85.89
55757;BME280;41676;44.610;44.078;2023-04-30T04:10:32;99770.47;;;13.01;85.92
55757;BME280;41676;44.610;44.078;2023-04-30T04:29:27;99753.06;;;13.46;89.67
55757;BME280;41676;44.610;44.078;2023-04-30T04:51:36;99773.75;;;13.31;91.37
55757;BME280;41676;44.610;44.078;2023-04-30T04:56:39;99779.66;;;13.27;89.96
55757;BME280;41676;44.610;44.078;2023-04-30T05:01:40;99792.19;;;13.33;89.29
55757;BME280;41676;44.610;44.078;2023-04-30T05:06:41;99771.59;;;13.13;89.24
55757;BME280;41676;44.610;44.078;2023-04-30T05:11:42;99810.09;;;13.45;88.86
55757;BME280;41676;44.610;44.078;2023-04-30T05:16:44;99816.47;;;13.44;88.22
55757;BME280;41676;44.610;44.078;2023-04-30T05:21:45;99826.91;;;13.46;87.84
55757;BME280;41676;44.610;44.078;2023-04-30T05:26:46;99826.50;;;13.42;87.59
55757;BME280;41676;44.610;44.078;2023-04-30T05:31:47;99824.88;;;13.41;88.55
55757;BME280;41676;44.610;44.078;2023-04-30T05:36:48;99816.06;;;13.47;89.56
55757;BME280;41676;44.610;44.078;2023-04-30T05:41:49;99731.06;;;13.38;89.45
55757;BME280;41676;44.610;44.078;2023-04-30T05:46:50;99784.75;;;13.83;89.48
55757;BME280;41676;44.610;44.078;2023-04-30T05:51:51;99811.91;;;14.06;89.31
55757;BME280;41676;44.610;44.078;2023-04-30T05:56:51;99814.75;;;13.98;88.80
55757;BME280;41676;44.610;44.078;2023-04-30T06:01:52;99753.31;;;13.78;88.04
55757;BME280;41676;44.610;44.078;2023-04-30T06:06:53;99794.44;;;14.37;87.35
55757;BME280;41676;44.610;44.078;2023-04-30T06:11:54;99793.41;;;14.78;86.33
55757;BME280;41676;44.610;44.078;2023-04-30T06:16:55;99760.81;;;15.07;84.76
55757;BME280;41676;44.610;44.078;2023-04-30T06:21:56;99776.03;;;15.59;82.91
55757;BME280;41676;44.610;44.078;2023-04-30T06:26:56;99790.34;;;16.09;81.01
55757;BME280;41676;44.610;44.078;2023-04-30T06:31:57;99771.63;;;16.78;77.52
55757;BME280;41676;44.610;44.078;2023-04-30T06:36:58;99690.56;;;16.94;75.13
55757;BME280;41676;44.610;44.078;2023-04-30T06:41:59;99742.59;;;17.42;73.46
55757;BME280;41676;44.610;44.078;2023-04-30T06:46:59;99757.81;;;17.60;72.39
55757;BME280;41676;44.610;44.078;2023-04-30T06:52:00;99745.06;;;17.85;70.05
55757;BME280;41676;44.610;44.078;2023-04-30T06:57:02;99650.63;;;17.58;68.65
55757;BME280;41676;44.610;44.078;2023-04-30T07:02:03;99602.06;;;17.71;67.74
55757;BME280;41676;44.610;44.078;2023-04-30T07:07:03;99667.75;;;18.34;66.68
55757;BME280;41676;44.610;44.078;2023-04-30T07:12:04;99665.94;;;18.63;65.18
55757;BME280;41676;44.610;44.078;2023-04-30T07:17:05;99660.94;;;18.67;64.55
55757;BME280;41676;44.610;44.078;2023-04-30T07:22:06;99602.28;;;18.40;63.90
55757;BME280;41676;44.610;44.078;2023-04-30T07:27:06;99676.16;;;19.02;62.64
55757;BME280;41676;44.610;44.078;2023-04-30T07:32:07;99677.19;;;19.12;62.27
55757;BME280;41676;44.610;44.078;2023-04-30T07:37:08;99652.25;;;19.34;60.96
55757;BME280;41676;44.610;44.078;2023-04-30T07:42:09;99682.38;;;19.76;59.30
55757;BME280;41676;44.610;44.078;2023-04-30T07:47:10;99677.97;;;19.70;58.64
55757;BME280;41676;44.610;44.078;2023-04-30T07:52:11;99689.63;;;20.10;58.12
55757;BME280;41676;44.610;44.078;2023-04-30T07:57:12;99686.28;;;20.19;57.60
55757;BME280;41676;44.610;44.078;2023-04-30T08:02:13;99678.81;;;20.43;57.29
55757;BME280;41676;44.610;44.078;2023-04-30T08:07:14;99674.41;;;20.76;56.73
55757;BME280;41676;44.610;44.078;2023-04-30T08:12:17;99673.00;;;21.45;56.46
55757;BME280;41676;44.610;44.078;2023-04-30T08:17:18;99663.25;;;21.16;55.04
55757;BME280;41676;44.610;44.078;2023-04-30T08:22:19;99675.94;;;21.16;54.76
55757;BME280;41676;44.610;44.078;2023-04-30T08:27:20;99699.44;;;20.93;55.06
55757;BME280;41676;44.610;44.078;2023-04-30T08:32:21;99695.16;;;20.75;55.33
55757;BME280;41676;44.610;44.078;2023-04-30T08:37:22;99680.28;;;20.95;54.77
55757;BME280;41676;44.610;44.078;2023-04-30T08:42:30;99634.75;;;20.38;53.90
55757;BME280;41676;44.610;44.078;2023-04-30T08:47:32;99708.03;;;20.68;54.33
55757;BME280;41676;44.610;44.078;2023-04-30T08:52:33;99640.44;;;20.19;53.92
55757;BME280;41676;44.610;44.078;2023-04-30T08:57:37;99702.75;;;20.57;54.42
55757;BME280;41676;44.610;44.078;2023-04-30T09:02:40;99730.56;;;20.40;53.96
55757;BME280;41676;44.610;44.078;2023-04-30T09:07:44;99711.56;;;19.96;55.07
55757;BME280;41676;44.610;44.078;2023-04-30T09:13:05;99738.25;;;19.98;55.13
55757;BME280;41676;44.610;44.078;2023-04-30T09:18:16;99728.50;;;19.80;55.49
55757;BME280;41676;44.610;44.078;2023-04-30T09:23:17;99694.47;;;19.45;56.07
55757;BME280;41676;44.610;44.078;2023-04-30T09:28:19;99659.97;;;19.13;56.03
55757;BME280;41676;44.610;44.078;2023-04-30T09:33:44;99703.47;;;19.51;56.47
55757;BME280;41676;44.610;44.078;2023-04-30T09:38:45;99667.81;;;19.60;56.27
55757;BME280;41676;44.610;44.078;2023-04-30T09:43:46;99658.84;;;19.89;55.80
55757;BME280;41676;44.610;44.078;2023-04-30T09:48:56;99646.84;;;19.96;55.32
55757;BME280;41676;44.610;44.078;2023-04-30T09:53:57;99673.16;;;19.72;55.99
55757;BME280;41676;44.610;44.078;2023-04-30T09:59:03;99717.13;;;19.61;55.95
55757;BME280;41676;44.610;44.078;2023-04-30T10:04:05;99734.94;;;19.33;56.59
55757;BME280;41676;44.610;44.078;2023-04-30T10:09:07;99732.13;;;19.28;56.70
55757;BME280;41676;44.610;44.078;2023-04-30T10:14:12;99728.81;;;19.38;56.71
55757;BME280;41676;44.610;44.078;2023-04-30T10:19:19;99615.28;;;18.72;56.78
55757;BME280;41676;44.610;44.078;2023-04-30T10:24:22;99685.66;;;19.33;57.20
55757;BME280;41676;44.610;44.078;2023-04-30T10:29:23;99641.00;;;19.08;56.72
55757;BME280;41676;44.610;44.078;2023-04-30T10:40:09;99653.56;;;18.74;56.98
55757;BME280;41676;44.610;44.078;2023-04-30T10:45:10;99721.59;;;18.98;57.99
55757;BME280;41676;44.610;44.078;2023-04-30T10:50:12;99680.31;;;18.69;58.89
55757;BME280;41676;44.610;44.078;2023-04-30T10:55:16;99659.88;;;18.56;59.60
55757;BME280;41676;44.610;44.078;2023-04-30T11:00:17;99651.38;;;18.36;60.76
55757;BME280;41676;44.610;44.078;2023-04-30T11:05:18;99589.56;;;17.77;62.35
55757;BME280;41676;44.610;44.078;2023-04-30T11:10:21;99664.13;;;18.05;63.71
55757;BME280;41676;44.610;44.078;2023-04-30T11:15:29;99645.63;;;17.73;64.81
55757;BME280;41676;44.610;44.078;2023-04-30T11:20:31;99682.88;;;17.70;64.67
55757;BME280;41676;44.610;44.078;2023-04-30T11:25:44;99688.31;;;17.51;66.07
55757;BME280;41676;44.610;44.078;2023-04-30T11:52:52;99696.72;;;17.55;65.52
55757;BME280;41676;44.610;44.078;2023-04-30T11:57:55;99735.06;;;17.62;65.22
55757;BME280;41676;44.610;44.078;2023-04-30T12:02:59;99704.63;;;17.38;65.21
55757;BME280;41676;44.610;44.078;2023-04-30T12:08:00;99710.97;;;17.55;64.62
55757;BME280;41676;44.610;44.078;2023-04-30T12:13:06;99695.94;;;17.24;65.16
55757;BME280;41676;44.610;44.078;2023-04-30T12:18:11;99713.31;;;17.22;66.00
55757;BME280;41676;44.610;44.078;2023-04-30T12:23:13;99704.16;;;17.11;66.13
55757;BME280;41676;44.610;44.078;2023-04-30T12:28:14;99599.00;;;16.35;66.03
55757;BME280;41676;44.610;44.078;2023-04-30T12:33:16;99719.31;;;17.05;66.38
55757;BME280;41676;44.610;44.078;2023-04-30T12:38:17;99686.25;;;16.93;66.53
55757;BME280;41676;44.610;44.078;2023-04-30T12:43:18;99606.38;;;16.58;66.25
55757;BME280;41676;44.610;44.078;2023-04-30T12:48:22;99650.97;;;16.89;66.48
55757;BME280;41676;44.610;44.078;2023-04-30T12:53:23;99647.66;;;16.76;66.82
55757;BME280;41676;44.610;44.078;2023-04-30T12:58:29;99663.34;;;16.72;67.84
55757;BME280;41676;44.610;44.078;2023-04-30T13:03:30;99605.94;;;16.25;67.36
55757;BME280;41676;44.610;44.078;2023-04-30T13:08:31;99682.94;;;16.54;67.69
55757;BME280;41676;44.610;44.078;2023-04-30T13:13:32;99693.44;;;16.56;67.77
55757;BME280;41676;44.610;44.078;2023-04-30T13:18:33;99712.81;;;16.58;67.71
55757;BME280;41676;44.610;44.078;2023-04-30T13:23:33;99722.75;;;16.51;68.15
55757;BME280;41676;44.610;44.078;2023-04-30T13:47:25;99671.69;;;16.64;68.65
55757;BME280;41676;44.610;44.078;2023-04-30T13:52:26;99629.53;;;16.16;69.01
55757;BME280;41676;44.610;44.078;2023-04-30T13:57:26;99650.50;;;16.01;68.93
55757;BME280;41676;44.610;44.078;2023-04-30T14:02:29;99748.72;;;16.32;69.07
55757;BME280;41676;44.610;44.078;2023-04-30T14:07:30;99769.53;;;16.36;69.23
55757;BME280;41676;44.610;44.078;2023-04-30T14:12:31;99760.72;;;16.29;69.67
55757;BME280;41676;44.610;44.078;2023-04-30T14:17:32;99759.28;;;16.27;69.89
55757;BME280;41676;44.610;44.078;2023-04-30T14:22:33;99767.19;;;16.22;70.17
55757;BME280;41676;44.610;44.078;2023-04-30T14:27:38;99798.50;;;16.21;70.48
55757;BME280;41676;44.610;44.078;2023-04-30T14:32:39;99792.47;;;16.01;70.89
55757;BME280;41676;44.610;44.078;2023-04-30T14:37:40;99833.19;;;16.09;71.12
55757;BME280;41676;44.610;44.078;2023-04-30T14:42:41;99839.66;;;16.02;71.20
55757;BME280;41676;44.610;44.078;2023-04-30T14:47:42;99783.00;;;15.60;71.47
55757;BME280;41676;44.610;44.078;2023-04-30T14:52:43;99864.16;;;16.05;71.53
55757;BME280;41676;44.610;44.078;2023-04-30T14:57:44;99857.97;;;16.05;71.31
55757;BME280;41676;44.610;44.078;2023-04-30T15:02:44;99872.84;;;16.01;71.47
55757;BME280;41676;44.610;44.078;2023-04-30T15:07:45;99871.44;;;15.98;71.62
55757;BME280;41676;44.610;44.078;2023-04-30T15:12:46;99791.53;;;15.43;71.42
55757;BME280;41676;44.610;44.078;2023-04-30T15:17:47;99874.16;;;15.91;71.24
55757;BME280;41676;44.610;44.078;2023-04-30T15:22:51;99874.78;;;15.87;71.80
55757;BME280;41676;44.610;44.078;2023-04-30T15:27:54;99858.97;;;15.72;71.60
55757;BME280;41676;44.610;44.078;2023-04-30T15:32:55;99860.81;;;15.78;71.61
55757;BME280;41676;44.610;44.078;2023-04-30T15:37:56;99849.28;;;15.78;71.56
55757;BME280;41676;44.610;44.078;2023-04-30T15:42:57;99842.50;;;15.75;71.65
55757;BME280;41676;44.610;44.078;2023-04-30T15:47:58;99830.00;;;15.56;71.96
55757;BME280;41676;44.610;44.078;2023-04-30T15:52:59;99857.34;;;15.58;71.85
55757;BME280;41676;44.610;44.078;2023-04-30T15:58:00;99842.56;;;15.48;72.42
55757;BME280;41676;44.610;44.078;2023-04-30T16:03:01;99851.41;;;15.56;72.81
55757;BME280;41676;44.610;44.078;2023-04-30T16:08:02;99710.16;;;14.61;73.38
55757;BME280;41676;44.610;44.078;2023-04-30T16:13:03;99870.59;;;15.39;73.88
55757;BME280;41676;44.610;44.078;2023-04-30T16:18:03;99872.53;;;15.19;74.08
55757;BME280;41676;44.610;44.078;2023-04-30T16:23:04;99818.91;;;14.67;74.44
55757;BME280;41676;44.610;44.078;2023-04-30T16:28:05;99914.13;;;15.08;74.58
55757;BME280;41676;44.610;44.078;2023-04-30T16:33:06;99927.47;;;15.01;74.89
55757;BME280;41676;44.610;44.078;2023-04-30T16:38:07;99926.66;;;15.01;74.86
55757;BME280;41676;44.610;44.078;2023-04-30T16:43:08;99926.25;;;14.97;74.88
55757;BME280;41676;44.610;44.078;2023-04-30T16:53:32;99881.84;;;14.63;75.44
55757;BME280;41676;44.610;44.078;2023-04-30T16:58:33;99897.88;;;14.56;75.82
55757;BME280;41676;44.610;44.078;2023-04-30T17:03:34;99764.22;;;13.70;76.40
55757;BME280;41676;44.610;44.078;2023-04-30T17:08:35;99874.59;;;14.30;76.70
55757;BME280;41676;44.610;44.078;2023-04-30T17:13:36;99908.31;;;14.38;77.34
55757;BME280;41676;44.610;44.078;2023-04-30T17:18:37;99892.88;;;14.27;77.82
55757;BME280;41676;44.610;44.078;2023-04-30T17:28:48;99872.31;;;14.07;78.54
55757;BME280;41676;44.610;44.078;2023-04-30T17:33:49;99884.59;;;14.02;79.14
55757;BME280;41676;44.610;44.078;2023-04-30T17:38:50;99908.25;;;14.05;79.67
55757;BME280;41676;44.610;44.078;2023-04-30T17:43:50;99899.00;;;14.01;80.32
55757;BME280;41676;44.610;44.078;2023-04-30T17:48:51;99903.47;;;13.93;80.66
55757;BME280;41676;44.610;44.078;2023-04-30T17:53:52;99905.31;;;13.93;81.02
55757;BME280;41676;44.610;44.078;2023-04-30T17:58:53;99917.69;;;13.94;81.71
55757;BME280;41676;44.610;44.078;2023-04-30T18:03:58;99858.00;;;13.67;82.60
55757;BME280;41676;44.610;44.078;2023-04-30T18:08:59;99918.75;;;14.13;81.84
55757;BME280;41676;44.610;44.078;2023-04-30T18:14:01;99931.47;;;14.11;81.76
55757;BME280;41676;44.610;44.078;2023-04-30T18:19:04;99917.47;;;13.96;82.52
55757;BME280;41676;44.610;44.078;2023-04-30T18:24:04;99906.38;;;13.92;82.77
55757;BME280;41676;44.610;44.078;2023-04-30T18:29:05;99902.25;;;13.96;82.68
55757;BME280;41676;44.610;44.078;2023-04-30T18:34:07;99899.00;;;14.07;82.70
55757;BME280;41676;44.610;44.078;2023-04-30T18:39:08;99871.19;;;13.82;82.86
55757;BME280;41676;44.610;44.078;2023-04-30T18:44:11;99832.91;;;13.55;82.72
55757;BME280;41676;44.610;44.078;2023-04-30T18:49:12;99865.84;;;13.82;83.18
55757;BME280;41676;44.610;44.078;2023-04-30T18:54:13;99876.75;;;13.87;83.38
55757;BME280;41676;44.610;44.078;2023-04-30T18:59:14;99890.13;;;13.87;83.37
55757;BME280;41676;44.610;44.078;2023-04-30T19:04:15;99824.06;;;13.47;83.71
55757;BME280;41676;44.610;44.078;2023-04-30T19:09:16;99886.03;;;13.91;83.95
55757;BME280;41676;44.610;44.078;2023-04-30T19:14:17;99893.19;;;13.84;84.29
55757;BME280;41676;44.610;44.078;2023-04-30T19:19:18;99812.31;;;13.29;84.65
55757;BME280;41676;44.610;44.078;2023-04-30T19:24:19;99813.06;;;13.22;84.72
55757;BME280;41676;44.610;44.078;2023-04-30T19:29:20;99916.16;;;13.78;84.89
55757;BME280;41676;44.610;44.078;2023-04-30T19:48:22;99920.94;;;13.96;86.43
55757;BME280;41676;44.610;44.078;2023-04-30T19:53:23;99888.22;;;13.67;86.02
55757;BME280;41676;44.610;44.078;2023-04-30T19:58:27;99915.75;;;13.75;85.62
55757;BME280;41676;44.610;44.078;2023-04-30T20:03:27;99935.06;;;13.77;85.46
55757;BME280;41676;44.610;44.078;2023-04-30T20:08:28;99949.22;;;13.77;85.28
55757;BME280;41676;44.610;44.078;2023-04-30T20:13:29;99943.00;;;13.63;85.37
55757;BME280;41676;44.610;44.078;2023-04-30T20:18:30;99969.50;;;13.65;85.67
55757;BME280;41676;44.610;44.078;2023-04-30T20:23:31;99907.63;;;13.20;85.67
55757;BME280;41676;44.610;44.078;2023-04-30T20:28:32;99937.41;;;13.23;86.19
55757;BME280;41676;44.610;44.078;2023-04-30T20:33:33;99982.56;;;13.53;86.06
55757;BME280;41676;44.610;44.078;2023-04-30T20:38:34;99958.50;;;13.46;86.08
55757;BME280;41676;44.610;44.078;2023-04-30T20:43:35;99971.47;;;13.50;85.95
55757;BME280;41676;44.610;44.078;2023-04-30T20:48:36;99948.41;;;13.42;86.20
55757;BME280;41676;44.610;44.078;2023-04-30T21:17:00;99957.03;;;13.79;84.21
55757;BME280;41676;44.610;44.078;2023-04-30T21:22:01;99895.75;;;13.22;83.70
55757;BME280;41676;44.610;44.078;2023-04-30T21:27:01;99899.53;;;13.07;83.88
55757;BME280;41676;44.610;44.078;2023-04-30T21:32:03;99959.91;;;13.42;83.67
55757;BME280;41676;44.610;44.078;2023-04-30T21:37:04;99896.19;;;12.98;83.70
55757;BME280;41676;44.610;44.078;2023-04-30T21:42:05;99868.13;;;12.74;84.33
55757;BME280;41676;44.610;44.078;2023-04-30T21:47:06;99899.78;;;12.84;84.41
55757;BME280;41676;44.610;44.078;2023-04-30T21:52:09;99964.00;;;13.10;84.47
55757;BME280;41676;44.610;44.078;2023-04-30T21:57:10;99984.03;;;13.28;84.60
55757;BME280;41676;44.610;44.078;2023-04-30T22:02:11;99989.19;;;13.29;84.80
55757;BME280;41676;44.610;44.078;2023-04-30T22:07:14;100003.59;;;13.35;84.94
55757;BME280;41676;44.610;44.078;2023-04-30T22:12:15;100003.38;;;13.36;84.52
55757;BME280;41676;44.610;44.078;2023-04-30T22:17:18;99991.69;;;13.16;84.86
55757;BME280;41676;44.610;44.078;2023-04-30T22:22:19;100016.38;;;13.24;85.35
55757;BME280;41676;44.610;44.078;2023-04-30T22:27:20;100009.41;;;13.23;85.47
55757;BME280;41676;44.610;44.078;2023-04-30T22:32:21;100002.19;;;13.17;85.89
55757;BME280;41676;44.610;44.078;2023-04-30T22:37:22;99988.28;;;13.00;85.79
55757;BME280;41676;44.610;44.078;2023-04-30T22:42:24;99963.91;;;12.75;86.44
55757;BME280;41676;44.610;44.078;2023-04-30T22:47:26;100004.88;;;12.96;86.95
55757;BME280;41676;44.610;44.078;2023-04-30T22:52:27;99960.09;;;12.63;87.37
55757;BME280;41676;44.610;44.078;2023-04-30T22:57:32;99937.88;;;12.56;86.80
55757;BME280;41676;44.610;44.078;2023-04-30T23:02:33;99994.22;;;12.96;87.26
55757;BME280;41676;44.610;44.078;2023-04-30T23:07:34;99943.66;;;12.60;87.32
55757;BME280;41676;44.610;44.078;2023-04-30T23:12:34;100006.66;;;12.89;88.23
55757;BME280;41676;44.610;44.078;2023-04-30T23:17:35;100020.44;;;12.92;88.48
55757;BME280;41676;44.610;44.078;2023-04-30T23:22:36;99933.25;;;12.43;87.94
55757;BME280;41676;44.610;44.078;2023-04-30T23:27:37;100021.19;;;12.86;88.55
55757;BME280;41676;44.610;44.078;2023-04-30T23:32:38;100034.97;;;12.90;88.67
55757;BME280;41676;44.610;44.078;2023-04-30T23:37:38;100050.16;;;12.89;88.79
55757;BME280;41676;44.610;44.078;2023-04-30T23:42:39;100039.78;;;12.79;89.44
55757;BME280;41676;44.610;44.078;2023-04-30T23:47:40;100060.44;;;12.92;89.66
55757;BME280;41676;44.610;44.078;2023-04-30T23:52:41;100042.72;;;12.85;89.88
55757;BME280;41676;44.610;44.078;2023-04-30T23:57:42;100078.91;;;12.94;90.54
